createdAt,value
2022-09-29T00:02:09.617Z,2.77
2022-09-29T00:04:36.506Z,1.97
2022-09-29T00:07:03.226Z,2.60
2022-09-29T00:09:29.962Z,1.77
2022-09-29T00:11:57.105Z,1.00
2022-09-29T00:14:24.592Z,0.90
2022-09-29T00:16:51.774Z,1.50
2022-09-29T00:19:19.411Z,1.67
2022-09-29T00:21:46.187Z,4.03
2022-09-29T00:24:12.866Z,2.23
2022-09-29T00:26:39.564Z,1.73
2022-09-29T00:29:06.625Z,1.50
2022-09-29T00:31:34.050Z,2.10
2022-09-29T00:34:00.842Z,2.23
2022-09-29T00:36:31.036Z,3.33
2022-09-29T00:38:58.980Z,3.50
2022-09-29T00:41:34.287Z,3.93
2022-09-29T00:44:05.294Z,3.40
2022-09-29T00:46:49.776Z,3.00
2022-09-29T00:49:28.430Z,3.13
2022-09-29T00:52:04.004Z,3.20
2022-09-29T00:54:36.880Z,3.20
2022-09-29T00:57:06.946Z,3.87
2022-09-29T00:59:49.595Z,3.80
2022-09-29T01:02:18.738Z,3.57
2022-09-29T01:04:47.943Z,3.47
2022-09-29T01:07:14.958Z,4.17
2022-09-29T01:09:43.683Z,4.07
2022-09-29T01:12:10.668Z,3.87
2022-09-29T01:14:38.561Z,4.03
2022-09-29T01:17:06.163Z,3.97
2022-09-29T01:20:04.006Z,3.70
2022-09-29T01:22:37.413Z,4.20
2022-09-29T01:25:31.436Z,4.27
2022-09-29T01:28:07.111Z,4.33
2022-09-29T01:31:10.316Z,4.23
2022-09-29T01:33:37.196Z,4.23
2022-09-29T01:36:20.189Z,4.37
2022-09-29T01:38:54.201Z,4.77
2022-09-29T01:41:23.731Z,4.93
2022-09-29T01:44:24.031Z,4.30
2022-09-29T01:47:05.847Z,4.10
2022-09-29T01:49:37.360Z,4.07
2022-09-29T01:52:12.038Z,4.67
2022-09-29T01:54:48.564Z,4.97
2022-09-29T01:57:24.127Z,3.70
2022-09-29T02:00:11.500Z,4.00
2022-09-29T02:02:47.458Z,3.63
2022-09-29T02:05:25.248Z,3.70
2022-09-29T02:07:56.083Z,3.50
2022-09-29T02:10:33.514Z,3.50
2022-09-29T02:13:03.179Z,3.43
2022-09-29T02:15:35.113Z,3.47
2022-09-29T02:18:10.266Z,3.40
2022-09-29T02:20:37.012Z,4.10
2022-09-29T02:23:04.887Z,3.13
2022-09-29T02:25:35.919Z,3.20
2022-09-29T02:28:02.600Z,3.40
2022-09-29T02:30:29.314Z,3.20
2022-09-29T02:32:56.021Z,3.30
2022-09-29T02:35:23.036Z,2.87
2022-09-29T02:37:54.578Z,2.83
2022-09-29T02:41:05.023Z,2.80
2022-09-29T02:43:52.738Z,3.10
2022-09-29T02:46:31.448Z,2.90
2022-09-29T02:49:31.832Z,3.33
2022-09-29T02:52:06.176Z,3.30
2022-09-29T02:55:00.314Z,4.10
2022-09-29T02:57:36.285Z,4.00
2022-09-29T03:00:11.520Z,4.60
2022-09-29T03:02:40.179Z,5.83
2022-09-29T03:05:10.545Z,6.83
2022-09-29T03:07:41.126Z,5.77
2022-09-29T03:10:09.533Z,5.70
2022-09-29T03:12:36.961Z,5.53
2022-09-29T03:15:04.515Z,6.43
2022-09-29T03:17:31.452Z,6.03
2022-09-29T03:19:58.149Z,7.07
2022-09-29T03:22:25.518Z,6.43
2022-09-29T03:24:52.199Z,7.30
2022-09-29T03:27:19.046Z,5.40
2022-09-29T03:29:45.779Z,7.70
2022-09-29T03:32:12.500Z,6.43
2022-09-29T03:34:39.290Z,6.53
2022-09-29T03:37:06.171Z,6.07
2022-09-29T03:39:32.940Z,7.07
2022-09-29T03:41:59.580Z,6.43
2022-09-29T03:44:26.390Z,6.47
2022-09-29T03:46:53.190Z,5.70
2022-09-29T03:49:20.068Z,6.80
2022-09-29T03:51:46.978Z,6.80
2022-09-29T03:54:13.689Z,6.03
2022-09-29T03:56:40.419Z,5.67
2022-09-29T03:59:09.451Z,6.07
2022-09-29T04:01:38.412Z,5.30
2022-09-29T04:04:06.867Z,5.70
2022-09-29T04:06:34.041Z,5.57
2022-09-29T04:09:00.790Z,5.70
2022-09-29T04:11:28.222Z,5.83
2022-09-29T04:13:55.080Z,5.20
2022-09-29T04:16:21.932Z,5.83
2022-09-29T04:18:48.654Z,5.33
2022-09-29T04:21:16.822Z,5.13
2022-09-29T04:23:43.620Z,4.90
2022-09-29T04:26:10.788Z,5.20
2022-09-29T04:28:38.604Z,5.17
2022-09-29T04:31:05.710Z,5.00
2022-09-29T04:33:32.757Z,4.70
2022-09-29T04:36:00.597Z,5.27
2022-09-29T04:38:27.745Z,5.27
2022-09-29T04:40:54.488Z,5.10
2022-09-29T04:43:21.399Z,5.47
2022-09-29T04:45:48.157Z,4.33
2022-09-29T04:48:15.096Z,5.70
2022-09-29T04:50:43.047Z,4.47
2022-09-29T04:53:11.402Z,4.50
2022-09-29T04:55:38.850Z,4.70
2022-09-29T04:58:06.120Z,4.57
2022-09-29T05:00:32.944Z,4.63
2022-09-29T05:03:00.922Z,5.17
2022-09-29T05:05:27.850Z,5.37
2022-09-29T05:07:54.555Z,4.70
2022-09-29T05:10:21.416Z,4.57
2022-09-29T05:12:51.081Z,5.17
2022-09-29T05:15:24.829Z,4.50
2022-09-29T05:17:52.801Z,4.53
2022-09-29T05:20:19.591Z,4.90
2022-09-29T05:22:46.294Z,5.20
2022-09-29T05:25:12.978Z,5.07
2022-09-29T05:27:39.756Z,4.77
2022-09-29T05:30:06.965Z,4.57
2022-09-29T05:32:33.738Z,4.20
2022-09-29T05:35:01.001Z,3.63
2022-09-29T05:37:27.833Z,3.53
2022-09-29T05:39:54.504Z,3.80
2022-09-29T05:42:21.313Z,3.80
2022-09-29T05:44:48.024Z,3.60
2022-09-29T05:47:15.136Z,3.00
2022-09-29T05:49:42.262Z,2.93
2022-09-29T05:52:09.130Z,2.73
2022-09-29T05:54:36.038Z,2.40
2022-09-29T05:57:02.753Z,1.93
2022-09-29T05:59:29.495Z,1.87
2022-09-29T06:01:56.261Z,2.23
2022-09-29T06:04:23.049Z,2.03
2022-09-29T06:06:49.736Z,1.53
2022-09-29T06:09:16.891Z,1.77
2022-09-29T06:11:43.650Z,2.30
2022-09-29T06:14:10.365Z,2.07
2022-09-29T06:16:37.241Z,1.90
2022-09-29T06:19:04.810Z,1.57
2022-09-29T06:21:33.761Z,1.60
2022-09-29T06:24:00.949Z,1.70
2022-09-29T06:26:28.539Z,1.83
2022-09-29T06:28:56.501Z,1.73
2022-09-29T06:31:26.049Z,1.80
2022-09-29T06:33:53.647Z,1.97
2022-09-29T06:36:52.951Z,2.30
2022-09-29T06:39:20.112Z,1.80
2022-09-29T06:41:56.540Z,1.70
2022-09-29T06:44:26.600Z,1.20
2022-09-29T06:46:54.739Z,1.17
2022-09-29T06:49:21.978Z,1.30
2022-09-29T06:51:49.195Z,1.00
2022-09-29T06:54:18.302Z,1.07
2022-09-29T06:56:49.069Z,1.20
2022-09-29T06:59:16.644Z,1.00
2022-09-29T07:01:43.935Z,1.20
2022-09-29T07:04:11.066Z,1.23
2022-09-29T07:06:37.726Z,1.40
2022-09-29T07:09:04.459Z,1.40
2022-09-29T07:11:31.210Z,1.70
2022-09-29T07:13:58.026Z,1.30
2022-09-29T07:16:24.914Z,1.10
2022-09-29T07:18:52.566Z,1.20
2022-09-29T07:21:22.164Z,1.40
2022-09-29T07:23:49.821Z,1.07
2022-09-29T07:26:17.331Z,1.40
2022-09-29T07:28:45.758Z,1.30
2022-09-29T07:31:16.269Z,1.40
2022-09-29T07:33:44.186Z,1.40
2022-09-29T07:36:12.062Z,1.30
2022-09-29T07:38:38.726Z,1.20
2022-09-29T07:41:08.738Z,1.60
2022-09-29T07:43:35.432Z,1.80
2022-09-29T07:46:02.652Z,1.90
2022-09-29T07:48:32.226Z,2.30
2022-09-29T07:51:04.494Z,1.90
2022-09-29T07:53:32.408Z,2.07
2022-09-29T07:56:03.743Z,2.87
2022-09-29T07:58:32.448Z,2.43
2022-09-29T08:01:00.329Z,2.57
2022-09-29T08:03:27.600Z,3.93
2022-09-29T08:05:54.245Z,3.57
2022-09-29T08:08:20.963Z,2.43
2022-09-29T08:10:53.445Z,2.17
2022-09-29T08:13:20.468Z,2.00
2022-09-29T08:15:47.625Z,1.80
2022-09-29T08:18:14.410Z,1.50
2022-09-29T08:20:41.150Z,1.30
2022-09-29T08:23:07.865Z,1.40
2022-09-29T08:25:36.303Z,1.37
2022-09-29T08:28:03.012Z,1.30
2022-09-29T08:30:29.947Z,0.97
2022-09-29T08:32:57.041Z,1.30
2022-09-29T08:35:25.402Z,1.00
2022-09-29T08:37:55.124Z,1.20
2022-09-29T08:40:22.058Z,0.93
2022-09-29T08:43:23.341Z,0.90
2022-09-29T08:46:33.130Z,0.60
2022-09-29T08:49:10.436Z,1.13
2022-09-29T08:51:48.743Z,1.50
2022-09-29T08:54:40.403Z,2.70
2022-09-29T08:57:20.239Z,3.10
2022-09-29T08:59:57.778Z,2.30
2022-09-29T09:02:30.273Z,5.00
2022-09-29T09:05:19.750Z,3.40
2022-09-29T09:08:07.193Z,2.80
2022-09-29T09:10:47.348Z,2.77
2022-09-29T09:13:51.566Z,3.63
2022-09-29T09:16:47.982Z,1.97
2022-09-29T09:19:55.476Z,0.70
2022-09-29T09:22:33.621Z,1.20
2022-09-29T09:25:23.896Z,1.77
2022-09-29T09:28:02.815Z,1.60
2022-09-29T09:30:37.292Z,1.90
2022-09-29T09:33:26.896Z,1.93
2022-09-29T09:36:07.186Z,2.30
2022-09-29T09:38:55.126Z,1.47
2022-09-29T09:41:26.191Z,1.27
2022-09-29T09:44:16.269Z,1.57
2022-09-29T09:47:16.232Z,1.30
2022-09-29T09:49:51.083Z,3.70
2022-09-29T09:52:41.856Z,1.73
2022-09-29T09:55:17.825Z,1.30
2022-09-29T09:57:48.106Z,1.70
2022-09-29T10:00:28.866Z,1.10
2022-09-29T10:02:57.956Z,1.00
2022-09-29T10:05:34.302Z,0.90
2022-09-29T10:08:01.693Z,1.00
2022-09-29T10:10:29.780Z,0.90
2022-09-29T10:13:11.093Z,1.00
2022-09-29T10:15:44.030Z,1.00
2022-09-29T10:18:19.688Z,0.93
2022-09-29T10:20:46.771Z,1.13
2022-09-29T10:23:35.804Z,1.00
2022-09-29T10:26:18.908Z,1.20
2022-09-29T10:28:58.574Z,1.20
2022-09-29T10:31:34.379Z,1.00
2022-09-29T10:34:22.608Z,1.02
2022-09-29T10:36:53.645Z,1.00
2022-09-29T10:39:43.739Z,1.10
2022-09-29T10:42:48.389Z,1.03
2022-09-29T10:45:22.520Z,1.03
2022-09-29T10:48:09.006Z,1.05
2022-09-29T10:50:48.189Z,1.20
2022-09-29T10:53:42.821Z,0.93
2022-09-29T10:56:21.235Z,1.33
2022-09-29T10:59:04.493Z,1.33
2022-09-29T11:01:45.365Z,1.20
2022-09-29T11:04:33.602Z,1.50
2022-09-29T11:07:13.104Z,1.45
2022-09-29T11:09:43.359Z,1.13
2022-09-29T11:12:32.051Z,1.50
2022-09-29T11:15:01.424Z,1.30
2022-09-29T11:17:39.338Z,1.37
2022-09-29T11:20:14.742Z,1.20
2022-09-29T11:22:53.635Z,1.35
2022-09-29T11:25:32.845Z,1.50
2022-09-29T11:28:17.942Z,1.37
2022-09-29T11:30:54.897Z,1.40
2022-09-29T11:33:31.373Z,1.40
2022-09-29T11:36:10.106Z,1.10
2022-09-29T11:38:45.822Z,1.23
2022-09-29T11:41:43.812Z,1.40
2022-09-29T11:44:32.753Z,1.30
2022-09-29T11:47:25.544Z,1.30
2022-09-29T11:50:13.963Z,1.40
2022-09-29T11:53:06.977Z,1.20
2022-09-29T11:55:52.803Z,1.13
2022-09-29T11:58:19.511Z,1.13
2022-09-29T12:01:07.522Z,1.13
2022-09-29T12:03:43.518Z,0.90
2022-09-29T12:06:36.303Z,0.90
2022-09-29T12:09:21.635Z,1.20
2022-09-29T12:12:22.731Z,1.37
2022-09-29T12:15:14.787Z,1.23
2022-09-29T12:17:51.076Z,1.20
2022-09-29T12:20:26.245Z,1.20
2022-09-29T12:22:56.789Z,1.10
2022-09-29T12:25:26.952Z,1.30
2022-09-29T12:28:02.867Z,1.20
2022-09-29T12:30:38.562Z,0.80
2022-09-29T12:33:27.070Z,1.03
2022-09-29T12:36:03.291Z,1.10
2022-09-29T12:38:40.159Z,0.90
2022-09-29T12:41:15.943Z,1.40
2022-09-29T12:44:04.482Z,1.37
2022-09-29T12:46:37.396Z,1.00
2022-09-29T12:49:31.390Z,1.30
2022-09-29T12:51:58.594Z,1.10
2022-09-29T12:54:42.821Z,1.60
2022-09-29T12:57:19.082Z,1.27
2022-09-29T13:00:09.473Z,1.30
2022-09-29T13:02:42.223Z,1.43
2022-09-29T13:05:30.738Z,1.33
2022-09-29T13:08:14.648Z,1.60
2022-09-29T13:10:56.016Z,1.27
2022-09-29T13:14:17.357Z,1.80
2022-09-29T13:17:16.479Z,1.27
2022-09-29T13:20:11.472Z,1.47
2022-09-29T13:23:11.587Z,1.50
2022-09-29T13:25:59.524Z,1.43
2022-09-29T13:28:34.316Z,1.50
2022-09-29T13:31:08.962Z,1.70
2022-09-29T13:33:36.129Z,1.43
2022-09-29T13:36:03.781Z,1.50
2022-09-29T13:38:38.003Z,1.60
2022-09-29T13:41:22.686Z,1.60
2022-09-29T13:43:49.869Z,1.60
2022-09-29T13:46:31.899Z,2.23
2022-09-29T13:49:13.830Z,1.87
2022-09-29T13:51:50.588Z,1.70
2022-09-29T13:54:24.877Z,2.83
2022-09-29T13:57:06.518Z,2.00
2022-09-29T13:59:35.819Z,2.13
2022-09-29T14:02:17.969Z,1.87
2022-09-29T14:04:52.233Z,2.03
2022-09-29T14:07:43.540Z,2.13
2022-09-29T14:10:26.064Z,2.30
2022-09-29T14:13:04.566Z,2.20
2022-09-29T14:15:43.811Z,2.40
2022-09-29T14:18:31.010Z,2.10
2022-09-29T14:21:09.375Z,2.23
2022-09-29T14:23:46.024Z,2.30
2022-09-29T14:26:54.191Z,2.47
2022-09-29T14:29:27.011Z,2.43
2022-09-29T14:31:58.202Z,2.43
2022-09-29T14:34:29.527Z,3.20
2022-09-29T14:36:58.906Z,3.90
2022-09-29T14:39:27.413Z,4.20
2022-09-29T14:41:54.682Z,3.43
2022-09-29T14:44:54.328Z,4.33
2022-09-29T14:47:54.808Z,4.77
2022-09-29T14:50:59.264Z,5.37
2022-09-29T14:53:52.082Z,5.73
2022-09-29T14:56:37.486Z,6.37
2022-09-29T14:59:20.288Z,6.03
2022-09-29T15:02:29.226Z,5.90
2022-09-29T15:04:56.647Z,5.83
2022-09-29T15:07:26.567Z,5.47
2022-09-29T15:09:58.657Z,5.53
2022-09-29T15:12:31.649Z,5.47
2022-09-29T15:14:59.227Z,5.37
2022-09-29T15:17:51.522Z,5.93
2022-09-29T15:20:25.665Z,5.87
2022-09-29T15:23:16.041Z,5.57
2022-09-29T15:25:45.090Z,5.97
2022-09-29T15:28:19.532Z,5.50
2022-09-29T15:30:51.182Z,5.03
2022-09-29T15:33:45.143Z,5.53
2022-09-29T15:36:20.299Z,4.40
2022-09-29T15:38:51.651Z,4.87
2022-09-29T15:41:22.146Z,4.50
2022-09-29T15:43:54.289Z,5.37
2022-09-29T15:46:37.655Z,4.77
2022-09-29T15:49:04.314Z,4.37
2022-09-29T15:51:31.995Z,4.13
2022-09-29T15:54:04.127Z,4.40
2022-09-29T15:56:32.445Z,4.30
2022-09-29T15:58:59.981Z,4.60
2022-09-29T16:01:26.947Z,4.17
2022-09-29T16:03:57.587Z,4.13
2022-09-29T16:06:33.993Z,3.50
2022-09-29T16:09:08.171Z,3.53
2022-09-29T16:11:38.227Z,3.77
2022-09-29T16:14:11.661Z,3.90
2022-09-29T16:16:45.910Z,3.77
2022-09-29T16:19:17.055Z,3.53
2022-09-29T16:21:44.490Z,3.63
2022-09-29T16:24:19.288Z,3.00
2022-09-29T16:26:54.176Z,4.83
2022-09-29T16:29:32.626Z,3.53
2022-09-29T16:32:20.687Z,3.87
2022-09-29T16:34:47.393Z,4.27
2022-09-29T16:37:20.288Z,4.30
2022-09-29T16:39:49.277Z,4.80
2022-09-29T16:42:25.562Z,4.40
2022-09-29T16:44:55.773Z,4.37
2022-09-29T16:47:28.619Z,5.47
2022-09-29T16:49:57.933Z,4.60
2022-09-29T16:52:42.688Z,5.37
2022-09-29T16:55:21.481Z,4.57
2022-09-29T16:57:55.089Z,4.60
2022-09-29T17:00:22.409Z,4.57
2022-09-29T17:02:57.731Z,4.60
2022-09-29T17:05:25.526Z,4.63
2022-09-29T17:08:00.274Z,4.63
2022-09-29T17:10:27.451Z,4.97
2022-09-29T17:12:55.292Z,4.83
2022-09-29T17:15:23.203Z,4.80
2022-09-29T17:17:51.050Z,4.67
2022-09-29T17:20:30.247Z,4.90
2022-09-29T17:22:59.946Z,4.33
2022-09-29T17:25:27.248Z,5.03
2022-09-29T17:28:12.291Z,4.80
2022-09-29T17:30:41.040Z,4.53
2022-09-29T17:33:09.804Z,4.90
2022-09-29T17:35:57.041Z,5.63
2022-09-29T17:38:24.236Z,5.40
2022-09-29T17:41:02.549Z,5.67
2022-09-29T17:43:31.567Z,5.27
2022-09-29T17:45:59.723Z,5.90
2022-09-29T17:48:27.676Z,6.07
2022-09-29T17:50:57.506Z,7.20
2022-09-29T17:53:25.460Z,6.23
2022-09-29T17:55:57.468Z,6.93
2022-09-29T17:58:24.608Z,7.20
2022-09-29T18:00:53.613Z,7.30
2022-09-29T18:03:22.092Z,6.67
2022-09-29T18:05:59.961Z,7.77
2022-09-29T18:08:29.535Z,7.10
2022-09-29T18:11:01.306Z,7.70
2022-09-29T18:13:31.712Z,8.97
2022-09-29T18:15:59.699Z,11.50
2022-09-29T18:18:26.538Z,14.20
2022-09-29T18:20:53.231Z,7.87
2022-09-29T18:23:21.414Z,7.33
2022-09-29T18:25:50.404Z,6.57
2022-09-29T18:28:18.337Z,6.87
2022-09-29T18:30:48.640Z,7.40
2022-09-29T18:33:17.526Z,7.40
2022-09-29T18:35:46.788Z,7.27
2022-09-29T18:38:13.554Z,7.23
2022-09-29T18:40:40.309Z,7.33
2022-09-29T18:43:11.671Z,6.87
2022-09-29T18:45:41.992Z,6.83
2022-09-29T18:48:12.553Z,7.30
2022-09-29T18:50:44.499Z,6.93
2022-09-29T18:53:12.422Z,6.40
2022-09-29T18:55:41.661Z,7.40
2022-09-29T18:58:17.274Z,7.07
2022-09-29T19:00:47.627Z,7.00
2022-09-29T19:03:14.377Z,7.53
2022-09-29T19:05:43.138Z,6.67
2022-09-29T19:08:12.896Z,7.87
2022-09-29T19:10:42.109Z,8.03
2022-09-29T19:13:16.702Z,6.80
2022-09-29T19:15:44.829Z,7.70
2022-09-29T19:18:22.625Z,6.53
2022-09-29T19:20:51.660Z,6.70
2022-09-29T19:23:21.671Z,6.53
2022-09-29T19:25:50.114Z,5.90
2022-09-29T19:28:19.965Z,5.73
2022-09-29T19:30:49.047Z,5.60
2022-09-29T19:33:18.738Z,5.90
2022-09-29T19:35:50.623Z,6.03
2022-09-29T19:38:18.173Z,6.03
2022-09-29T19:40:46.381Z,6.27
2022-09-29T19:43:14.451Z,5.93
2022-09-29T19:45:42.309Z,5.23
2022-09-29T19:48:13.918Z,5.43
2022-09-29T19:50:59.394Z,5.40
2022-09-29T19:53:26.182Z,5.37
2022-09-29T19:55:53.279Z,5.50
2022-09-29T19:58:20.345Z,5.50
2022-09-29T20:00:47.703Z,5.40
2022-09-29T20:03:15.040Z,5.37
2022-09-29T20:05:41.903Z,5.63
2022-09-29T20:08:08.698Z,6.17
2022-09-29T20:10:37.074Z,5.50
2022-09-29T20:13:04.434Z,5.50
2022-09-29T20:15:31.299Z,5.40
2022-09-29T20:17:58.041Z,5.23
2022-09-29T20:20:24.859Z,4.90
2022-09-29T20:22:53.523Z,4.63
2022-09-29T20:25:21.156Z,5.00
2022-09-29T20:27:52.154Z,5.37
2022-09-29T20:30:20.796Z,4.87
2022-09-29T20:32:48.319Z,5.63
2022-09-29T20:35:15.049Z,4.47
2022-09-29T20:37:41.742Z,5.20
2022-09-29T20:40:10.275Z,5.10
2022-09-29T20:42:38.463Z,5.33
2022-09-29T20:45:06.123Z,5.33
2022-09-29T20:47:33.434Z,5.60
2022-09-29T20:50:00.124Z,6.23
2022-09-29T20:52:26.880Z,6.73
2022-09-29T20:54:53.832Z,5.87
2022-09-29T20:57:21.115Z,6.27
2022-09-29T20:59:47.956Z,7.23
2022-09-29T21:02:15.020Z,7.77
2022-09-29T21:04:42.631Z,7.77
2022-09-29T21:07:29.495Z,8.70
2022-09-29T21:09:56.532Z,7.87
2022-09-29T21:12:24.348Z,7.27
2022-09-29T21:14:51.122Z,7.73
2022-09-29T21:17:17.949Z,7.03
2022-09-29T21:19:44.771Z,7.43
2022-09-29T21:22:11.567Z,6.57
2022-09-29T21:24:39.395Z,7.90
2022-09-29T21:27:06.833Z,8.13
2022-09-29T21:29:34.159Z,8.20
2022-09-29T21:32:02.098Z,8.30
2022-09-29T21:34:29.465Z,7.73
2022-09-29T21:36:56.328Z,7.77
2022-09-29T21:39:23.244Z,8.20
2022-09-29T21:41:50.069Z,8.87
2022-09-29T21:44:19.625Z,8.50
2022-09-29T21:46:47.155Z,8.97
2022-09-29T21:49:16.598Z,9.80
2022-09-29T21:51:45.970Z,10.47
2022-09-29T21:54:18.839Z,8.67
2022-09-29T21:56:47.052Z,8.83
2022-09-29T21:59:17.347Z,8.60
2022-09-29T22:01:46.197Z,9.73
2022-09-29T22:04:13.793Z,10.73
2022-09-29T22:06:44.082Z,10.90
2022-09-29T22:09:14.829Z,11.03
2022-09-29T22:11:42.278Z,11.60
2022-09-29T22:14:11.614Z,9.67
2022-09-29T22:16:38.574Z,10.63
2022-09-29T22:21:56.275Z,10.47
2022-09-29T22:24:24.558Z,10.10
2022-09-29T22:26:51.641Z,10.77
2022-09-29T22:29:18.791Z,10.80
2022-09-29T22:31:46.110Z,10.97
2022-09-29T22:34:12.914Z,10.20
2022-09-29T22:36:39.589Z,11.20
2022-09-29T22:39:07.188Z,11.43
2022-09-29T22:41:36.994Z,11.23
2022-09-29T22:44:04.294Z,11.97
2022-09-29T22:46:32.178Z,11.60
2022-09-29T22:48:59.093Z,12.03
2022-09-29T22:51:26.175Z,11.40
2022-09-29T22:53:53.080Z,10.77
2022-09-29T22:56:22.416Z,9.77
2022-09-29T22:58:49.632Z,10.17
2022-09-29T23:01:18.129Z,9.90
2022-09-29T23:03:46.037Z,9.40
2022-09-29T23:06:13.164Z,9.73
2022-09-29T23:08:41.071Z,9.40
2022-09-29T23:11:08.555Z,9.90
2022-09-29T23:13:37.575Z,9.97
2022-09-29T23:16:11.626Z,10.67
2022-09-29T23:18:45.734Z,11.30
2022-09-29T23:21:14.837Z,10.47
2022-09-29T23:23:42.191Z,12.37
2022-09-29T23:26:09.592Z,10.90
2022-09-29T23:28:37.090Z,11.77
2022-09-29T23:31:05.766Z,10.97
2022-09-29T23:33:33.239Z,10.53
2022-09-29T23:36:10.304Z,10.17
2022-09-29T23:38:57.717Z,10.27
2022-09-29T23:41:27.183Z,9.53
2022-09-29T23:43:55.746Z,8.13
2022-09-29T23:46:23.844Z,8.60
2022-09-29T23:48:50.963Z,9.10
2022-09-29T23:51:18.872Z,12.00
2022-09-29T23:53:45.609Z,11.40
2022-09-29T23:56:12.294Z,12.23
2022-09-29T23:58:39.030Z,10.87
